createdAt,value
2022-09-01T00:01:56.199Z,51.37
2022-09-01T00:04:26.075Z,51.33
2022-09-01T00:06:53.867Z,51.36
2022-09-01T00:09:19.906Z,51.33
2022-09-01T00:11:50.492Z,51.31
2022-09-01T00:14:24.100Z,51.34
2022-09-01T00:16:56.329Z,51.38
2022-09-01T00:19:22.178Z,51.31
2022-09-01T00:21:47.781Z,51.42
2022-09-01T00:24:15.446Z,51.36
2022-09-01T00:26:41.012Z,51.32
2022-09-01T00:29:06.731Z,51.33
2022-09-01T00:31:32.430Z,51.34
2022-09-01T00:33:58.302Z,51.29
2022-09-01T00:36:23.985Z,51.31
2022-09-01T00:38:49.728Z,51.41
2022-09-01T00:41:15.840Z,51.32
2022-09-01T00:43:43.707Z,51.31
2022-09-01T00:46:11.985Z,51.34
2022-09-01T00:48:37.541Z,51.33
2022-09-01T00:51:03.845Z,51.21
2022-09-01T00:53:29.384Z,51.32
2022-09-01T00:55:55.153Z,51.31
2022-09-01T00:58:20.892Z,51.39
2022-09-01T01:00:46.649Z,51.32
2022-09-01T01:03:12.676Z,51.30
2022-09-01T01:05:39.841Z,51.35
2022-09-01T01:08:07.295Z,51.23
2022-09-01T01:10:35.060Z,51.34
2022-09-01T01:13:02.136Z,51.30
2022-09-01T01:15:28.188Z,51.34
2022-09-01T01:17:53.869Z,51.24
2022-09-01T01:20:39.325Z,51.23
2022-09-01T01:23:09.644Z,51.29
2022-09-01T01:25:43.783Z,51.25
2022-09-01T01:28:11.970Z,51.22
2022-09-01T01:30:38.767Z,51.21
2022-09-01T01:33:04.391Z,51.33
2022-09-01T01:35:31.072Z,51.22
2022-09-01T01:37:56.607Z,51.26
2022-09-01T01:40:22.203Z,51.25
2022-09-01T01:42:49.275Z,51.21
2022-09-01T01:45:16.402Z,51.23
2022-09-01T01:47:45.371Z,51.17
2022-09-01T01:50:11.840Z,51.33
2022-09-01T01:52:37.376Z,51.20
2022-09-01T01:55:06.071Z,51.29
2022-09-01T01:57:34.694Z,51.33
2022-09-01T02:00:00.810Z,51.19
2022-09-01T02:02:26.423Z,51.29
2022-09-01T02:04:52.659Z,51.31
2022-09-01T02:07:18.208Z,51.29
2022-09-01T02:09:47.244Z,51.30
2022-09-01T02:12:15.871Z,51.12
2022-09-01T02:14:41.613Z,51.15
2022-09-01T02:17:07.306Z,51.28
2022-09-01T02:19:35.903Z,51.20
2022-09-01T02:22:01.440Z,51.23
2022-09-01T02:24:31.115Z,51.25
2022-09-01T02:26:58.423Z,51.17
2022-09-01T02:29:25.671Z,51.28
2022-09-01T02:31:51.673Z,51.25
2022-09-01T02:34:17.271Z,51.12
2022-09-01T02:36:46.728Z,51.24
2022-09-01T02:39:13.363Z,51.09
2022-09-01T02:41:39.617Z,51.10
2022-09-01T02:44:10.772Z,51.24
2022-09-01T02:46:40.888Z,51.17
2022-09-01T02:49:14.255Z,51.14
2022-09-01T02:51:40.506Z,51.13
2022-09-01T02:54:06.584Z,51.13
2022-09-01T02:56:32.115Z,51.13
2022-09-01T02:58:59.348Z,51.22
2022-09-01T03:01:28.224Z,51.11
2022-09-01T03:03:55.170Z,51.20
2022-09-01T03:06:23.199Z,51.12
2022-09-01T03:08:50.275Z,51.08
2022-09-01T03:11:15.922Z,51.23
2022-09-01T03:13:41.660Z,51.20
2022-09-01T03:16:07.291Z,51.13
2022-09-01T03:18:33.158Z,51.14
2022-09-01T03:20:58.934Z,51.26
2022-09-01T03:23:24.801Z,51.14
2022-09-01T03:25:50.498Z,51.07
2022-09-01T03:28:16.207Z,51.17
2022-09-01T03:30:44.311Z,51.15
2022-09-01T03:33:09.864Z,51.04
2022-09-01T03:35:35.575Z,51.17
2022-09-01T03:38:01.656Z,51.05
2022-09-01T03:40:29.241Z,50.99
2022-09-01T03:42:54.884Z,51.00
2022-09-01T03:45:20.579Z,51.13
2022-09-01T03:47:46.763Z,51.12
2022-09-01T03:50:20.689Z,51.03
2022-09-01T03:52:48.419Z,51.13
2022-09-01T03:55:18.872Z,50.96
2022-09-01T03:57:46.623Z,51.05
2022-09-01T04:00:20.167Z,51.26
2022-09-01T04:02:50.523Z,51.16
2022-09-01T04:05:24.248Z,51.07
2022-09-01T04:07:50.038Z,50.98
2022-09-01T04:10:16.955Z,51.08
2022-09-01T04:12:42.666Z,50.94
2022-09-01T04:15:08.419Z,51.12
2022-09-01T04:17:54.172Z,51.13
2022-09-01T04:20:21.083Z,50.96
2022-09-01T04:22:46.744Z,51.00
2022-09-01T04:25:13.019Z,51.23
2022-09-01T04:27:39.559Z,50.97
2022-09-01T04:30:09.829Z,50.96
2022-09-01T04:32:37.293Z,51.00
2022-09-01T04:35:03.460Z,51.07
2022-09-01T04:37:29.171Z,51.00
2022-09-01T04:39:56.522Z,50.98
2022-09-01T04:42:23.462Z,51.06
2022-09-01T04:44:50.061Z,50.96
2022-09-01T04:47:17.787Z,51.04
2022-09-01T04:49:44.684Z,50.99
2022-09-01T04:52:10.306Z,51.14
2022-09-01T04:54:36.683Z,51.13
2022-09-01T04:57:02.296Z,50.93
2022-09-01T04:59:28.880Z,50.93
2022-09-01T05:01:56.455Z,50.63
2022-09-01T05:04:23.627Z,50.30
2022-09-01T05:06:50.347Z,50.12
2022-09-01T05:09:17.202Z,49.92
2022-09-01T05:11:44.608Z,49.88
2022-09-01T05:14:11.486Z,49.93
2022-09-01T05:16:40.343Z,49.64
2022-09-01T05:19:06.792Z,49.67
2022-09-01T05:21:32.493Z,49.71
2022-09-01T05:23:59.896Z,49.68
2022-09-01T05:26:26.808Z,49.05
2022-09-01T05:28:53.841Z,48.29
2022-09-01T05:31:19.593Z,48.15
2022-09-01T05:33:47.500Z,48.16
2022-09-01T05:36:14.760Z,48.17
2022-09-01T05:38:41.383Z,48.12
2022-09-01T05:41:07.752Z,48.44
2022-09-01T05:43:33.487Z,48.22
2022-09-01T05:46:07.607Z,47.62
2022-09-01T05:48:38.914Z,48.08
2022-09-01T05:51:11.436Z,47.23
2022-09-01T05:53:50.623Z,48.03
2022-09-01T05:56:18.616Z,47.69
2022-09-01T06:01:32.907Z,48.18
2022-09-01T06:03:59.793Z,48.10
2022-09-01T06:06:27.225Z,47.96
2022-09-01T06:08:57.991Z,47.37
2022-09-01T06:11:24.940Z,46.56
2022-09-01T06:13:55.237Z,47.09
2022-09-01T06:16:21.907Z,47.11
2022-09-01T06:18:47.474Z,47.01
2022-09-01T06:21:17.542Z,46.63
2022-09-01T06:23:43.406Z,46.99
2022-09-01T06:26:26.849Z,46.47
2022-09-01T06:28:54.115Z,46.01
2022-09-01T06:31:22.968Z,46.20
2022-09-01T06:33:50.486Z,47.03
2022-09-01T06:36:17.084Z,46.25
2022-09-01T06:38:42.618Z,46.69
2022-09-01T06:41:09.732Z,46.36
2022-09-01T06:43:36.089Z,47.46
2022-09-01T06:46:01.693Z,46.83
2022-09-01T06:48:29.882Z,47.18
2022-09-01T06:53:44.273Z,47.64
2022-09-01T06:56:12.538Z,47.82
2022-09-01T06:58:40.801Z,47.38
2022-09-01T07:01:08.690Z,47.69
2022-09-01T07:03:34.229Z,47.69
2022-09-01T07:06:02.342Z,47.81
2022-09-01T07:08:29.052Z,47.87
2022-09-01T07:14:15.417Z,47.14
2022-09-01T07:16:34.053Z,47.72
2022-09-01T07:19:02.330Z,47.48
2022-09-01T07:22:06.687Z,47.30
2022-09-01T07:24:17.285Z,46.99
2022-09-01T07:26:47.512Z,46.63
2022-09-01T07:29:13.198Z,46.32
2022-09-01T07:34:41.493Z,46.67
2022-09-01T07:39:53.433Z,46.85
2022-09-01T07:47:55.561Z,46.05
2022-09-01T07:53:17.373Z,46.37
2022-09-01T07:55:44.066Z,46.06
2022-09-01T07:58:09.949Z,46.42
2022-09-01T08:00:36.278Z,45.22
2022-09-01T08:03:01.853Z,44.97
2022-09-01T08:05:28.046Z,45.13
2022-09-01T08:07:53.684Z,45.38
2022-09-01T08:10:20.119Z,46.00
2022-09-01T08:12:46.040Z,46.19
2022-09-01T08:15:12.986Z,46.14
2022-09-01T08:17:55.457Z,46.29
2022-09-01T08:20:21.077Z,46.27
2022-09-01T08:22:46.629Z,45.84
2022-09-01T08:25:12.300Z,45.88
2022-09-01T08:27:38.786Z,45.69
2022-09-01T08:30:06.140Z,46.21
2022-09-01T08:32:31.897Z,43.96
2022-09-01T08:34:57.445Z,44.39
2022-09-01T08:37:23.017Z,44.71
2022-09-01T08:39:48.717Z,45.23
2022-09-01T08:42:21.046Z,44.73
2022-09-01T08:45:05.210Z,44.68
2022-09-01T08:47:43.650Z,44.21
2022-09-01T08:50:16.458Z,43.94
2022-09-01T08:52:43.013Z,43.82
2022-09-01T08:55:22.007Z,44.03
2022-09-01T08:57:50.617Z,44.05
2022-09-01T09:00:17.343Z,44.15
2022-09-01T09:02:46.382Z,43.48
2022-09-01T09:05:31.870Z,43.77
2022-09-01T09:08:09.297Z,43.20
2022-09-01T09:10:47.047Z,43.77
2022-09-01T09:13:32.903Z,43.89
2022-09-01T09:16:07.758Z,43.41
2022-09-01T09:18:40.702Z,43.36
2022-09-01T09:21:16.422Z,43.49
2022-09-01T09:23:43.013Z,43.65
2022-09-01T09:26:08.562Z,43.97
2022-09-01T09:28:34.242Z,43.39
2022-09-01T09:31:20.062Z,43.38
2022-09-01T09:33:51.727Z,44.24
2022-09-01T09:36:19.586Z,43.88
2022-09-01T09:38:45.154Z,43.82
2022-09-01T09:41:27.191Z,43.57
2022-09-01T09:43:58.998Z,42.70
2022-09-01T09:46:34.403Z,42.38
2022-09-01T09:51:52.827Z,42.57
2022-09-01T09:54:22.777Z,42.67
2022-09-01T09:56:48.862Z,42.58
2022-09-01T09:59:29.331Z,42.33
2022-09-01T10:02:27.993Z,42.68
2022-09-01T10:04:55.906Z,42.16
2022-09-01T10:07:26.974Z,42.43
2022-09-01T10:09:53.115Z,42.26
2022-09-01T10:12:18.789Z,42.49
2022-09-01T10:14:52.195Z,38.87
2022-09-01T10:17:22.744Z,38.67
2022-09-01T10:19:53.367Z,39.96
2022-09-01T10:22:19.097Z,39.59
2022-09-01T10:24:46.006Z,39.08
2022-09-01T10:27:18.103Z,39.81
2022-09-01T10:29:48.149Z,39.90
2022-09-01T10:32:36.827Z,39.94
2022-09-01T10:35:02.490Z,39.96
2022-09-01T10:37:28.255Z,40.28
2022-09-01T10:42:54.391Z,40.23
2022-09-01T10:45:29.423Z,40.71
2022-09-01T10:47:55.120Z,40.55
2022-09-01T10:50:23.230Z,40.40
2022-09-01T10:52:53.664Z,38.01
2022-09-01T10:55:25.091Z,38.37
2022-09-01T11:06:14.376Z,40.31
2022-09-01T11:11:36.918Z,40.22
2022-09-01T11:14:05.941Z,39.78
2022-09-01T11:16:47.245Z,40.94
2022-09-01T11:19:16.342Z,40.02
2022-09-01T11:21:42.182Z,40.33
2022-09-01T11:24:27.629Z,40.93
2022-09-01T11:26:53.522Z,40.77
2022-09-01T11:29:39.065Z,41.24
2022-09-01T11:32:04.940Z,40.71
2022-09-01T11:34:31.148Z,40.86
2022-09-01T11:36:59.350Z,41.45
2022-09-01T11:39:33.232Z,40.34
2022-09-01T11:42:10.661Z,40.97
2022-09-01T11:44:40.203Z,40.75
2022-09-01T11:47:14.171Z,41.13
2022-09-01T11:49:45.313Z,43.11
2022-09-01T11:52:13.321Z,42.67
2022-09-01T11:54:39.721Z,41.69
2022-09-01T11:57:23.135Z,41.12
2022-09-01T11:59:48.751Z,40.82
2022-09-01T12:02:18.285Z,41.81
2022-09-01T12:04:43.864Z,41.21
2022-09-01T12:07:11.172Z,40.42
2022-09-01T12:09:38.689Z,40.20
2022-09-01T12:12:05.509Z,40.46
2022-09-01T12:14:48.815Z,40.65
2022-09-01T12:17:19.109Z,40.33
2022-09-01T12:19:44.646Z,39.41
2022-09-01T12:22:14.245Z,39.01
2022-09-01T12:24:43.150Z,38.68
2022-09-01T12:27:08.700Z,39.59
2022-09-01T12:29:34.235Z,40.52
2022-09-01T12:31:59.938Z,43.26
2022-09-01T12:37:11.848Z,41.62
2022-09-01T12:39:39.477Z,41.42
2022-09-01T12:42:09.958Z,41.66
2022-09-01T12:47:14.807Z,44.02
2022-09-01T12:49:50.099Z,41.65
2022-09-01T12:55:06.417Z,41.52
2022-09-01T12:57:34.044Z,44.30
2022-09-01T13:02:48.881Z,41.56
2022-09-01T13:05:34.611Z,42.38
2022-09-01T13:08:04.552Z,41.51
2022-09-01T13:10:32.669Z,41.95
2022-09-01T13:12:58.283Z,41.06
2022-09-01T13:15:24.781Z,41.67
2022-09-01T13:17:50.620Z,44.28
2022-09-01T13:20:16.149Z,42.27
2022-09-01T13:22:42.806Z,41.21
2022-09-01T13:25:09.969Z,40.77
2022-09-01T13:27:36.596Z,42.34
2022-09-01T13:30:03.641Z,41.23
2022-09-01T13:32:29.229Z,41.26
2022-09-01T13:34:55.096Z,41.13
2022-09-01T13:37:20.880Z,41.46
2022-09-01T13:39:46.498Z,40.51
2022-09-01T13:42:12.605Z,40.84
2022-09-01T13:44:38.144Z,40.00
2022-09-01T13:52:34.813Z,41.14
2022-09-01T13:55:00.920Z,40.55
2022-09-01T13:57:26.529Z,39.48
2022-09-01T13:59:52.976Z,40.21
2022-09-01T14:02:18.936Z,39.70
2022-09-01T14:04:44.685Z,40.37
2022-09-01T14:07:10.305Z,40.56
2022-09-01T14:09:35.841Z,40.43
2022-09-01T14:12:01.400Z,39.75
2022-09-01T14:14:27.089Z,39.60
2022-09-01T14:16:53.148Z,39.42
2022-09-01T14:19:18.833Z,39.16
2022-09-01T14:21:44.390Z,39.40
2022-09-01T14:24:11.287Z,39.59
2022-09-01T14:26:36.834Z,39.42
2022-09-01T14:29:02.373Z,39.52
2022-09-01T14:31:28.821Z,39.97
2022-09-01T14:33:54.479Z,39.75
2022-09-01T14:36:21.492Z,40.27
2022-09-01T14:38:48.294Z,39.88
2022-09-01T14:41:14.380Z,40.13
2022-09-01T14:43:42.218Z,39.90
2022-09-01T14:46:09.960Z,40.00
2022-09-01T14:48:37.341Z,40.11
2022-09-01T14:51:02.965Z,40.15
2022-09-01T14:53:29.196Z,40.40
2022-09-01T14:55:57.020Z,40.25
2022-09-01T14:58:23.146Z,40.65
2022-09-01T15:00:49.226Z,40.55
2022-09-01T15:03:18.185Z,40.23
2022-09-01T15:05:46.105Z,40.56
2022-09-01T15:08:17.001Z,40.34
2022-09-01T15:10:43.293Z,40.24
2022-09-01T15:13:08.841Z,40.31
2022-09-01T15:15:34.383Z,40.44
2022-09-01T15:17:59.949Z,40.61
2022-09-01T15:20:45.534Z,41.80
2022-09-01T15:23:12.092Z,43.70
2022-09-01T15:25:37.635Z,41.86
2022-09-01T15:28:03.505Z,41.95
2022-09-01T15:30:29.052Z,41.80
2022-09-01T15:32:54.637Z,41.37
2022-09-01T15:35:20.616Z,42.30
2022-09-01T15:37:46.755Z,42.08
2022-09-01T15:40:12.483Z,42.37
2022-09-01T15:42:38.153Z,41.82
2022-09-01T15:45:04.786Z,42.27
2022-09-01T15:47:30.332Z,42.47
2022-09-01T15:49:55.881Z,42.89
2022-09-01T15:52:21.424Z,42.78
2022-09-01T15:54:46.964Z,42.98
2022-09-01T15:57:12.541Z,42.28
2022-09-01T15:59:42.289Z,42.51
2022-09-01T16:02:08.604Z,42.24
2022-09-01T16:04:34.176Z,44.68
2022-09-01T16:06:59.718Z,45.63
2022-09-01T16:09:25.897Z,45.36
2022-09-01T16:11:51.933Z,45.42
2022-09-01T16:14:19.843Z,45.39
2022-09-01T16:16:48.117Z,45.48
2022-09-01T16:19:17.475Z,45.70
2022-09-01T16:21:49.148Z,46.64
2022-09-01T16:24:14.746Z,46.65
2022-09-01T16:26:40.361Z,46.58
2022-09-01T16:29:08.322Z,47.04
2022-09-01T16:31:38.025Z,47.61
2022-09-01T16:34:09.269Z,47.84
2022-09-01T16:36:53.884Z,47.29
2022-09-01T16:39:39.306Z,47.27
2022-09-01T16:42:12.527Z,47.38
2022-09-01T16:44:49.178Z,47.32
2022-09-01T16:47:34.609Z,47.29
2022-09-01T16:50:08.489Z,47.31
2022-09-01T16:52:38.384Z,46.93
2022-09-01T16:55:23.992Z,47.09
2022-09-01T16:58:10.850Z,46.89
2022-09-01T17:00:41.961Z,46.82
2022-09-01T17:03:17.571Z,46.83
2022-09-01T17:05:54.233Z,46.92
2022-09-01T17:11:06.293Z,46.54
2022-09-01T17:13:37.481Z,46.77
2022-09-01T17:16:07.087Z,46.72
2022-09-01T17:18:37.406Z,46.65
2022-09-01T17:21:08.139Z,46.54
2022-09-01T17:23:34.719Z,46.60
2022-09-01T17:26:04.415Z,46.64
2022-09-01T17:28:33.861Z,46.86
2022-09-01T17:31:05.442Z,46.53
2022-09-01T17:33:34.718Z,46.58
2022-09-01T17:36:11.320Z,46.59
2022-09-01T17:38:53.222Z,46.42
2022-09-01T17:41:41.280Z,46.46
2022-09-01T17:44:11.788Z,46.47
2022-09-01T17:46:41.301Z,46.44
2022-09-01T17:49:26.750Z,46.37
2022-09-01T17:54:35.714Z,46.36
2022-09-01T17:57:10.946Z,46.44
2022-09-01T17:59:40.419Z,46.30
2022-09-01T18:04:51.644Z,46.39
2022-09-01T18:07:26.245Z,46.30
2022-09-01T18:09:52.782Z,46.25
2022-09-01T18:12:19.229Z,46.23
2022-09-01T18:14:49.402Z,46.39
2022-09-01T18:17:25.014Z,46.24
2022-09-01T18:20:07.242Z,46.23
2022-09-01T18:22:40.119Z,46.07
2022-09-01T18:25:07.660Z,45.97
2022-09-01T18:27:34.243Z,45.84
2022-09-01T18:30:00.830Z,45.92
2022-09-01T18:32:33.362Z,45.86
2022-09-01T18:35:02.637Z,45.82
2022-09-01T18:40:33.221Z,45.74
2022-09-01T18:45:45.534Z,45.37
2022-09-01T18:51:08.228Z,45.46
2022-09-01T18:53:43.804Z,45.52
2022-09-01T18:56:29.237Z,45.04
2022-09-01T18:59:13.578Z,44.92
2022-09-01T19:01:43.749Z,44.96
2022-09-01T19:04:13.298Z,45.00
2022-09-01T19:06:45.729Z,45.00
2022-09-01T19:12:09.610Z,45.28
2022-09-01T19:17:32.638Z,45.05
2022-09-01T19:20:03.170Z,45.29
2022-09-01T19:22:32.923Z,45.08
2022-09-01T19:25:20.708Z,44.99
2022-09-01T19:27:49.676Z,45.15
2022-09-01T19:30:15.216Z,44.99
2022-09-01T19:32:40.757Z,44.92
2022-09-01T19:35:10.288Z,45.05
2022-09-01T19:37:35.845Z,45.08
2022-09-01T19:40:01.776Z,44.87
2022-09-01T19:42:47.202Z,44.74
2022-09-01T19:45:14.138Z,44.89
2022-09-01T19:47:42.299Z,44.90
2022-09-01T19:50:10.186Z,44.99
2022-09-01T19:52:45.549Z,44.95
2022-09-01T19:55:14.449Z,44.85
2022-09-01T19:57:56.758Z,45.03
2022-09-01T20:00:25.730Z,45.01
2022-09-01T20:03:00.149Z,45.13
2022-09-01T20:05:34.023Z,45.05
2022-09-01T20:08:02.601Z,44.98
2022-09-01T20:10:56.521Z,45.07
2022-09-01T20:13:26.080Z,45.13
2022-09-01T20:16:10.103Z,45.03
2022-09-01T20:18:37.017Z,45.09
2022-09-01T20:21:03.420Z,44.97
2022-09-01T20:23:32.881Z,45.00
2022-09-01T20:26:00.440Z,45.02
2022-09-01T20:28:45.862Z,44.81
2022-09-01T20:31:16.263Z,44.73
2022-09-01T20:33:50.914Z,44.91
2022-09-01T20:36:28.880Z,44.69
2022-09-01T20:39:20.293Z,44.77
2022-09-01T20:41:48.840Z,44.93
2022-09-01T20:44:20.485Z,44.85
2022-09-01T20:46:49.068Z,45.04
2022-09-01T20:49:14.602Z,45.06
2022-09-01T20:51:42.129Z,45.07
2022-09-01T20:54:27.602Z,45.32
2022-09-01T20:57:13.077Z,45.61
2022-09-01T20:59:45.449Z,45.73
2022-09-01T21:02:14.748Z,45.82
2022-09-01T21:05:00.226Z,45.78
2022-09-01T21:07:44.260Z,45.80
2022-09-01T21:10:30.022Z,45.94
2022-09-01T21:12:58.457Z,45.97
2022-09-01T21:15:42.200Z,45.86
2022-09-01T21:18:27.666Z,45.81
2022-09-01T21:23:34.518Z,46.03
2022-09-01T21:26:00.065Z,45.88
2022-09-01T21:28:27.069Z,45.87
2022-09-01T21:30:54.455Z,45.94
2022-09-01T21:33:20.557Z,45.82
2022-09-01T21:35:46.094Z,45.99
2022-09-01T21:38:11.649Z,45.87
2022-09-01T21:40:37.243Z,45.85
2022-09-01T21:43:04.456Z,45.96
2022-09-01T21:45:30.299Z,45.97
2022-09-01T21:47:55.851Z,46.06
2022-09-01T21:50:21.812Z,45.92
2022-09-01T21:52:47.441Z,45.96
2022-09-01T21:55:13.216Z,46.00
2022-09-01T21:57:38.763Z,46.06
2022-09-01T22:00:08.505Z,46.08
2022-09-01T22:02:35.169Z,45.95
2022-09-01T22:05:04.788Z,46.35
2022-09-01T22:07:31.961Z,46.15
2022-09-01T22:09:57.501Z,46.38
2022-09-01T22:12:23.045Z,45.96
2022-09-01T22:14:48.582Z,45.97
2022-09-01T22:17:14.132Z,46.06
2022-09-01T22:19:39.671Z,46.06
2022-09-01T22:22:06.224Z,45.95
2022-09-01T22:24:31.763Z,46.06
2022-09-01T22:26:57.312Z,46.37
2022-09-01T22:29:22.887Z,46.13
2022-09-01T22:31:48.443Z,46.76
2022-09-01T22:34:13.972Z,46.20
2022-09-01T22:36:41.429Z,46.67
2022-09-01T22:39:07.409Z,46.46
2022-09-01T22:41:33.273Z,46.33
2022-09-01T22:43:59.256Z,46.59
2022-09-01T22:46:25.483Z,46.48
2022-09-01T22:48:51.037Z,46.15
2022-09-01T22:51:16.760Z,46.43
2022-09-01T22:53:42.577Z,46.17
2022-09-01T22:56:10.360Z,46.62
2022-09-01T22:58:35.903Z,46.61
2022-09-01T23:01:02.006Z,46.17
2022-09-01T23:03:27.628Z,46.06
2022-09-01T23:06:01.422Z,46.07
2022-09-01T23:08:26.962Z,46.09
2022-09-01T23:10:52.516Z,46.22
2022-09-01T23:13:18.791Z,46.09
2022-09-01T23:15:44.374Z,46.46
2022-09-01T23:18:09.913Z,46.93
2022-09-01T23:20:35.478Z,46.95
2022-09-01T23:23:03.101Z,46.21
2022-09-01T23:25:29.117Z,46.24
2022-09-01T23:27:54.649Z,46.15
2022-09-01T23:30:20.374Z,46.25
2022-09-01T23:32:46.060Z,46.45
2022-09-01T23:35:11.624Z,46.29
2022-09-01T23:37:37.173Z,46.18
2022-09-01T23:40:03.691Z,46.25
2022-09-01T23:42:29.312Z,46.21
2022-09-01T23:44:54.845Z,46.12
2022-09-01T23:47:20.387Z,46.20
2022-09-01T23:49:45.929Z,46.29
2022-09-01T23:52:11.490Z,46.34
2022-09-01T23:54:37.028Z,46.30
2022-09-01T23:57:02.609Z,46.12
2022-09-01T23:59:28.153Z,46.17
